sensor_id;sensor_type;location;lat;lon;timestamp;P1;durP1;ratioP1;P2;durP2;ratioP2
66145;SDS011;52948;60.040;30.320;2022-07-03T00:01:34;16.25;;;7.95;;
66145;SDS011;52948;60.040;30.320;2022-07-03T00:06:36;14.20;;;7.05;;
66145;SDS011;52948;60.040;30.320;2022-07-03T00:11:38;12.93;;;6.85;;
66145;SDS011;52948;60.040;30.320;2022-07-03T00:16:41;10.07;;;6.75;;
66145;SDS011;52948;60.040;30.320;2022-07-03T00:22:17;12.10;;;6.82;;
66145;SDS011;52948;60.040;30.320;2022-07-03T00:27:13;12.35;;;6.88;;
66145;SDS011;52948;60.040;30.320;2022-07-03T00:32:21;11.65;;;6.80;;
66145;SDS011;52948;60.040;30.320;2022-07-03T00:37:24;11.35;;;6.20;;
66145;SDS011;52948;60.040;30.320;2022-07-03T00:42:27;10.35;;;5.88;;
66145;SDS011;52948;60.040;30.320;2022-07-03T00:47:30;13.23;;;5.78;;
66145;SDS011;52948;60.040;30.320;2022-07-03T00:52:34;8.32;;;5.82;;
66145;SDS011;52948;60.040;30.320;2022-07-03T00:57:47;9.63;;;5.95;;
66145;SDS011;52948;60.040;30.320;2022-07-03T01:02:55;10.18;;;5.15;;
66145;SDS011;52948;60.040;30.320;2022-07-03T01:13:14;11.40;;;5.95;;
66145;SDS011;52948;60.040;30.320;2022-07-03T01:18:28;12.25;;;6.63;;
66145;SDS011;52948;60.040;30.320;2022-07-03T01:23:46;11.07;;;6.07;;
66145;SDS011;52948;60.040;30.320;2022-07-03T01:29:14;13.30;;;6.30;;
66145;SDS011;52948;60.040;30.320;2022-07-03T01:34:22;16.88;;;7.30;;
66145;SDS011;52948;60.040;30.320;2022-07-03T01:39:27;13.85;;;7.80;;
66145;SDS011;52948;60.040;30.320;2022-07-03T01:44:30;11.07;;;7.20;;
66145;SDS011;52948;60.040;30.320;2022-07-03T01:49:33;14.43;;;7.30;;
66145;SDS011;52948;60.040;30.320;2022-07-03T01:54:39;13.93;;;7.22;;
66145;SDS011;52948;60.040;30.320;2022-07-03T01:59:44;16.20;;;7.97;;
66145;SDS011;52948;60.040;30.320;2022-07-03T02:04:54;14.07;;;7.63;;
66145;SDS011;52948;60.040;30.320;2022-07-03T02:10:04;16.55;;;8.35;;
66145;SDS011;52948;60.040;30.320;2022-07-03T02:15:08;14.70;;;7.72;;
66145;SDS011;52948;60.040;30.320;2022-07-03T02:20:12;19.40;;;8.73;;
66145;SDS011;52948;60.040;30.320;2022-07-03T02:25:21;18.83;;;8.63;;
66145;SDS011;52948;60.040;30.320;2022-07-03T02:30:24;18.33;;;8.55;;
66145;SDS011;52948;60.040;30.320;2022-07-03T02:35:29;15.45;;;8.32;;
66145;SDS011;52948;60.040;30.320;2022-07-03T02:45:48;15.82;;;7.30;;
66145;SDS011;52948;60.040;30.320;2022-07-03T02:50:58;17.15;;;8.27;;
66145;SDS011;52948;60.040;30.320;2022-07-03T02:56:07;16.08;;;7.10;;
66145;SDS011;52948;60.040;30.320;2022-07-03T03:01:28;17.73;;;7.80;;
66145;SDS011;52948;60.040;30.320;2022-07-03T03:06:32;15.90;;;8.23;;
66145;SDS011;52948;60.040;30.320;2022-07-03T03:17:01;19.98;;;8.55;;
66145;SDS011;52948;60.040;30.320;2022-07-03T03:27:23;17.02;;;7.55;;
66145;SDS011;52948;60.040;30.320;2022-07-03T03:32:25;11.77;;;6.45;;
66145;SDS011;52948;60.040;30.320;2022-07-03T03:37:28;11.77;;;7.65;;
66145;SDS011;52948;60.040;30.320;2022-07-03T03:42:30;16.95;;;9.38;;
66145;SDS011;52948;60.040;30.320;2022-07-03T03:47:33;16.35;;;8.35;;
66145;SDS011;52948;60.040;30.320;2022-07-03T03:52:35;17.30;;;8.30;;
66145;SDS011;52948;60.040;30.320;2022-07-03T03:57:37;13.32;;;6.40;;
66145;SDS011;52948;60.040;30.320;2022-07-03T04:02:39;15.75;;;7.57;;
66145;SDS011;52948;60.040;30.320;2022-07-03T04:07:42;15.27;;;8.63;;
66145;SDS011;52948;60.040;30.320;2022-07-03T04:12:44;16.20;;;8.82;;
66145;SDS011;52948;60.040;30.320;2022-07-03T04:17:50;13.15;;;7.07;;
66145;SDS011;52948;60.040;30.320;2022-07-03T04:22:53;12.23;;;7.35;;
66145;SDS011;52948;60.040;30.320;2022-07-03T04:27:55;16.52;;;8.05;;
66145;SDS011;52948;60.040;30.320;2022-07-03T04:32:57;12.80;;;8.52;;
66145;SDS011;52948;60.040;30.320;2022-07-03T04:37:59;16.15;;;7.88;;
66145;SDS011;52948;60.040;30.320;2022-07-03T04:43:01;11.13;;;7.03;;
66145;SDS011;52948;60.040;30.320;2022-07-03T04:48:04;12.57;;;8.20;;
66145;SDS011;52948;60.040;30.320;2022-07-03T04:53:06;13.52;;;7.30;;
66145;SDS011;52948;60.040;30.320;2022-07-03T04:58:08;12.25;;;6.40;;
66145;SDS011;52948;60.040;30.320;2022-07-03T05:03:13;11.60;;;7.07;;
66145;SDS011;52948;60.040;30.320;2022-07-03T05:08:16;15.43;;;8.52;;
66145;SDS011;52948;60.040;30.320;2022-07-03T05:13:18;12.82;;;8.43;;
66145;SDS011;52948;60.040;30.320;2022-07-03T05:18:20;17.23;;;9.00;;
66145;SDS011;52948;60.040;30.320;2022-07-03T05:23:22;10.85;;;7.70;;
66145;SDS011;52948;60.040;30.320;2022-07-03T05:28:25;13.25;;;9.35;;
66145;SDS011;52948;60.040;30.320;2022-07-03T05:33:27;14.20;;;8.63;;
66145;SDS011;52948;60.040;30.320;2022-07-03T05:38:32;16.58;;;8.07;;
66145;SDS011;52948;60.040;30.320;2022-07-03T05:43:53;12.50;;;7.22;;
66145;SDS011;52948;60.040;30.320;2022-07-03T05:48:55;10.25;;;6.85;;
66145;SDS011;52948;60.040;30.320;2022-07-03T05:53:58;11.40;;;7.13;;
66145;SDS011;52948;60.040;30.320;2022-07-03T05:59:00;9.15;;;6.68;;
66145;SDS011;52948;60.040;30.320;2022-07-03T06:04:02;8.88;;;6.25;;
66145;SDS011;52948;60.040;30.320;2022-07-03T06:09:05;9.73;;;6.70;;
66145;SDS011;52948;60.040;30.320;2022-07-03T06:14:07;9.90;;;7.47;;
66145;SDS011;52948;60.040;30.320;2022-07-03T06:19:09;8.82;;;7.07;;
66145;SDS011;52948;60.040;30.320;2022-07-03T06:24:11;9.68;;;6.72;;
66145;SDS011;52948;60.040;30.320;2022-07-03T06:29:14;8.40;;;6.72;;
66145;SDS011;52948;60.040;30.320;2022-07-03T06:34:16;10.40;;;7.45;;
66145;SDS011;52948;60.040;30.320;2022-07-03T06:39:18;10.00;;;7.05;;
66145;SDS011;52948;60.040;30.320;2022-07-03T06:44:20;8.38;;;7.15;;
66145;SDS011;52948;60.040;30.320;2022-07-03T06:49:23;10.20;;;6.43;;
66145;SDS011;52948;60.040;30.320;2022-07-03T06:54:25;10.32;;;6.88;;
66145;SDS011;52948;60.040;30.320;2022-07-03T06:59:27;9.38;;;7.65;;
66145;SDS011;52948;60.040;30.320;2022-07-03T07:04:30;9.55;;;7.88;;
66145;SDS011;52948;60.040;30.320;2022-07-03T07:09:33;11.18;;;8.27;;
66145;SDS011;52948;60.040;30.320;2022-07-03T07:14:35;10.85;;;7.72;;
66145;SDS011;52948;60.040;30.320;2022-07-03T07:19:38;11.65;;;6.97;;
66145;SDS011;52948;60.040;30.320;2022-07-03T07:24:40;9.13;;;7.05;;
66145;SDS011;52948;60.040;30.320;2022-07-03T07:29:42;8.93;;;7.00;;
66145;SDS011;52948;60.040;30.320;2022-07-03T07:34:45;10.30;;;7.72;;
66145;SDS011;52948;60.040;30.320;2022-07-03T07:39:47;9.15;;;7.85;;
66145;SDS011;52948;60.040;30.320;2022-07-03T07:44:49;11.32;;;7.72;;
66145;SDS011;52948;60.040;30.320;2022-07-03T07:49:51;10.73;;;7.90;;
66145;SDS011;52948;60.040;30.320;2022-07-03T07:54:54;9.02;;;7.03;;
66145;SDS011;52948;60.040;30.320;2022-07-03T07:59:56;7.85;;;6.28;;
66145;SDS011;52948;60.040;30.320;2022-07-03T08:04:58;9.20;;;6.00;;
66145;SDS011;52948;60.040;30.320;2022-07-03T08:10:19;10.45;;;6.63;;
66145;SDS011;52948;60.040;30.320;2022-07-03T08:15:21;8.23;;;6.25;;
66145;SDS011;52948;60.040;30.320;2022-07-03T08:20:24;8.10;;;6.78;;
66145;SDS011;52948;60.040;30.320;2022-07-03T08:25:26;11.05;;;6.78;;
66145;SDS011;52948;60.040;30.320;2022-07-03T08:30:29;7.43;;;5.50;;
66145;SDS011;52948;60.040;30.320;2022-07-03T08:35:31;8.68;;;6.28;;
66145;SDS011;52948;60.040;30.320;2022-07-03T08:40:34;7.65;;;6.13;;
66145;SDS011;52948;60.040;30.320;2022-07-03T08:45:39;7.50;;;5.38;;
66145;SDS011;52948;60.040;30.320;2022-07-03T08:50:42;7.85;;;5.95;;
66145;SDS011;52948;60.040;30.320;2022-07-03T08:55:44;7.97;;;5.35;;
66145;SDS011;52948;60.040;30.320;2022-07-03T09:00:47;7.88;;;6.00;;
66145;SDS011;52948;60.040;30.320;2022-07-03T09:05:50;5.72;;;4.88;;
66145;SDS011;52948;60.040;30.320;2022-07-03T09:10:52;6.93;;;5.22;;
66145;SDS011;52948;60.040;30.320;2022-07-03T09:15:55;5.85;;;4.57;;
66145;SDS011;52948;60.040;30.320;2022-07-03T09:21:01;5.30;;;4.47;;
66145;SDS011;52948;60.040;30.320;2022-07-03T09:26:04;8.60;;;5.40;;
66145;SDS011;52948;60.040;30.320;2022-07-03T09:31:07;6.07;;;4.20;;
66145;SDS011;52948;60.040;30.320;2022-07-03T09:36:09;6.45;;;5.15;;
66145;SDS011;52948;60.040;30.320;2022-07-03T09:41:12;4.60;;;4.18;;
66145;SDS011;52948;60.040;30.320;2022-07-03T09:46:14;4.60;;;4.15;;
66145;SDS011;52948;60.040;30.320;2022-07-03T09:51:17;9.68;;;5.10;;
66145;SDS011;52948;60.040;30.320;2022-07-03T09:56:32;6.22;;;4.15;;
66145;SDS011;52948;60.040;30.320;2022-07-03T10:01:39;4.72;;;3.70;;
66145;SDS011;52948;60.040;30.320;2022-07-03T10:06:56;5.15;;;4.43;;
66145;SDS011;52948;60.040;30.320;2022-07-03T10:12:02;5.30;;;4.38;;
66145;SDS011;52948;60.040;30.320;2022-07-03T10:17:05;4.95;;;4.07;;
66145;SDS011;52948;60.040;30.320;2022-07-03T10:22:09;6.90;;;5.10;;
66145;SDS011;52948;60.040;30.320;2022-07-03T10:27:21;5.25;;;4.53;;
66145;SDS011;52948;60.040;30.320;2022-07-03T10:32:24;4.88;;;4.22;;
66145;SDS011;52948;60.040;30.320;2022-07-03T10:37:28;6.13;;;4.50;;
66145;SDS011;52948;60.040;30.320;2022-07-03T10:42:35;5.82;;;4.22;;
66145;SDS011;52948;60.040;30.320;2022-07-03T10:47:56;6.07;;;4.50;;
66145;SDS011;52948;60.040;30.320;2022-07-03T10:53:21;5.28;;;4.15;;
66145;SDS011;52948;60.040;30.320;2022-07-03T10:58:29;4.38;;;3.97;;
66145;SDS011;52948;60.040;30.320;2022-07-03T11:03:51;7.63;;;5.05;;
66145;SDS011;52948;60.040;30.320;2022-07-03T11:09:01;7.15;;;4.60;;
66145;SDS011;52948;60.040;30.320;2022-07-03T11:19:26;3.75;;;2.83;;
66145;SDS011;52948;60.040;30.320;2022-07-03T11:24:35;4.35;;;3.40;;
66145;SDS011;52948;60.040;30.320;2022-07-03T11:29:40;6.97;;;3.85;;
66145;SDS011;52948;60.040;30.320;2022-07-03T11:34:43;5.60;;;4.32;;
66145;SDS011;52948;60.040;30.320;2022-07-03T11:39:45;4.13;;;3.25;;
66145;SDS011;52948;60.040;30.320;2022-07-03T11:44:51;6.00;;;3.80;;
66145;SDS011;52948;60.040;30.320;2022-07-03T11:49:54;4.82;;;3.42;;
66145;SDS011;52948;60.040;30.320;2022-07-03T11:54:57;4.25;;;3.25;;
66145;SDS011;52948;60.040;30.320;2022-07-03T12:00:04;4.13;;;3.28;;
66145;SDS011;52948;60.040;30.320;2022-07-03T12:05:15;8.43;;;3.97;;
66145;SDS011;52948;60.040;30.320;2022-07-03T12:10:18;3.35;;;2.97;;
66145;SDS011;52948;60.040;30.320;2022-07-03T12:15:21;4.18;;;3.50;;
66145;SDS011;52948;60.040;30.320;2022-07-03T12:20:26;4.75;;;3.47;;
66145;SDS011;52948;60.040;30.320;2022-07-03T12:25:29;4.70;;;2.88;;
66145;SDS011;52948;60.040;30.320;2022-07-03T12:30:31;3.65;;;3.13;;
66145;SDS011;52948;60.040;30.320;2022-07-03T12:35:33;4.38;;;2.97;;
66145;SDS011;52948;60.040;30.320;2022-07-03T12:40:36;4.35;;;3.25;;
66145;SDS011;52948;60.040;30.320;2022-07-03T12:45:39;5.13;;;3.65;;
66145;SDS011;52948;60.040;30.320;2022-07-03T12:50:44;4.68;;;3.10;;
66145;SDS011;52948;60.040;30.320;2022-07-03T12:55:53;4.03;;;2.80;;
66145;SDS011;52948;60.040;30.320;2022-07-03T13:00:56;4.75;;;2.97;;
66145;SDS011;52948;60.040;30.320;2022-07-03T13:05:58;4.13;;;3.72;;
66145;SDS011;52948;60.040;30.320;2022-07-03T13:11:01;6.95;;;3.42;;
66145;SDS011;52948;60.040;30.320;2022-07-03T13:16:22;4.90;;;3.35;;
66145;SDS011;52948;60.040;30.320;2022-07-03T13:21:28;3.17;;;2.88;;
66145;SDS011;52948;60.040;30.320;2022-07-03T13:26:30;4.72;;;2.95;;
66145;SDS011;52948;60.040;30.320;2022-07-03T13:31:32;4.18;;;3.50;;
66145;SDS011;52948;60.040;30.320;2022-07-03T13:36:35;3.30;;;2.85;;
66145;SDS011;52948;60.040;30.320;2022-07-03T13:41:37;4.68;;;3.08;;
66145;SDS011;52948;60.040;30.320;2022-07-03T13:46:39;4.72;;;3.13;;
66145;SDS011;52948;60.040;30.320;2022-07-03T13:51:42;4.40;;;2.97;;
66145;SDS011;52948;60.040;30.320;2022-07-03T13:56:45;3.60;;;3.15;;
66145;SDS011;52948;60.040;30.320;2022-07-03T14:01:47;4.55;;;3.15;;
66145;SDS011;52948;60.040;30.320;2022-07-03T14:06:49;4.95;;;3.30;;
66145;SDS011;52948;60.040;30.320;2022-07-03T14:11:52;3.70;;;3.05;;
66145;SDS011;52948;60.040;30.320;2022-07-03T14:16:54;3.63;;;3.20;;
66145;SDS011;52948;60.040;30.320;2022-07-03T14:21:56;3.90;;;3.45;;
66145;SDS011;52948;60.040;30.320;2022-07-03T14:26:59;4.85;;;3.17;;
66145;SDS011;52948;60.040;30.320;2022-07-03T14:32:20;5.05;;;3.72;;
66145;SDS011;52948;60.040;30.320;2022-07-03T14:37:31;6.20;;;3.35;;
66145;SDS011;52948;60.040;30.320;2022-07-03T14:42:34;4.60;;;3.20;;
66145;SDS011;52948;60.040;30.320;2022-07-03T14:47:36;3.30;;;3.00;;
66145;SDS011;52948;60.040;30.320;2022-07-03T14:52:38;2.72;;;2.47;;
66145;SDS011;52948;60.040;30.320;2022-07-03T14:57:43;4.57;;;3.22;;
66145;SDS011;52948;60.040;30.320;2022-07-03T15:03:05;5.68;;;2.60;;
66145;SDS011;52948;60.040;30.320;2022-07-03T15:08:12;4.93;;;2.90;;
66145;SDS011;52948;60.040;30.320;2022-07-03T15:13:16;3.42;;;2.45;;
66145;SDS011;52948;60.040;30.320;2022-07-03T15:18:19;2.38;;;2.15;;
66145;SDS011;52948;60.040;30.320;2022-07-03T15:23:24;3.95;;;3.13;;
66145;SDS011;52948;60.040;30.320;2022-07-03T15:28:27;2.92;;;2.63;;
66145;SDS011;52948;60.040;30.320;2022-07-03T15:33:31;2.63;;;2.13;;
66145;SDS011;52948;60.040;30.320;2022-07-03T15:38:35;3.35;;;2.47;;
66145;SDS011;52948;60.040;30.320;2022-07-03T15:54:06;2.30;;;2.10;;
66145;SDS011;52948;60.040;30.320;2022-07-03T15:59:12;1.73;;;1.63;;
66145;SDS011;52948;60.040;30.320;2022-07-03T16:04:17;2.85;;;1.38;;
66145;SDS011;52948;60.040;30.320;2022-07-03T16:09:29;2.35;;;1.50;;
66145;SDS011;52948;60.040;30.320;2022-07-03T16:14:32;2.83;;;1.70;;
66145;SDS011;52948;60.040;30.320;2022-07-03T16:19:36;2.10;;;1.48;;
66145;SDS011;52948;60.040;30.320;2022-07-03T16:24:42;2.50;;;1.80;;
66145;SDS011;52948;60.040;30.320;2022-07-03T16:29:45;4.10;;;1.40;;
66145;SDS011;52948;60.040;30.320;2022-07-03T16:34:50;2.60;;;1.67;;
66145;SDS011;52948;60.040;30.320;2022-07-03T16:40:08;3.53;;;1.63;;
66145;SDS011;52948;60.040;30.320;2022-07-03T16:45:11;5.32;;;1.90;;
66145;SDS011;52948;60.040;30.320;2022-07-03T16:50:18;2.65;;;1.80;;
66145;SDS011;52948;60.040;30.320;2022-07-03T16:55:22;2.65;;;1.65;;
66145;SDS011;52948;60.040;30.320;2022-07-03T17:00:25;2.13;;;1.85;;
66145;SDS011;52948;60.040;30.320;2022-07-03T17:05:30;5.68;;;2.05;;
66145;SDS011;52948;60.040;30.320;2022-07-03T17:10:32;2.25;;;1.85;;
66145;SDS011;52948;60.040;30.320;2022-07-03T17:15:34;6.97;;;2.58;;
66145;SDS011;52948;60.040;30.320;2022-07-03T17:20:38;3.50;;;1.92;;
66145;SDS011;52948;60.040;30.320;2022-07-03T17:25:51;3.67;;;1.95;;
66145;SDS011;52948;60.040;30.320;2022-07-03T17:31:04;2.25;;;1.83;;
66145;SDS011;52948;60.040;30.320;2022-07-03T17:36:18;3.90;;;1.90;;
66145;SDS011;52948;60.040;30.320;2022-07-03T17:41:23;2.95;;;1.98;;
66145;SDS011;52948;60.040;30.320;2022-07-03T17:46:30;3.75;;;1.90;;
66145;SDS011;52948;60.040;30.320;2022-07-03T17:51:32;4.38;;;1.70;;
66145;SDS011;52948;60.040;30.320;2022-07-03T17:56:35;3.67;;;2.00;;
66145;SDS011;52948;60.040;30.320;2022-07-03T18:01:37;2.65;;;1.48;;
66145;SDS011;52948;60.040;30.320;2022-07-03T18:06:39;3.70;;;1.38;;
66145;SDS011;52948;60.040;30.320;2022-07-03T18:11:53;2.28;;;1.33;;
66145;SDS011;52948;60.040;30.320;2022-07-03T18:16:59;1.50;;;1.40;;
66145;SDS011;52948;60.040;30.320;2022-07-03T18:22:03;1.27;;;1.15;;
66145;SDS011;52948;60.040;30.320;2022-07-03T18:27:07;4.25;;;1.75;;
66145;SDS011;52948;60.040;30.320;2022-07-03T18:32:14;2.03;;;1.60;;
66145;SDS011;52948;60.040;30.320;2022-07-03T18:37:20;1.85;;;1.60;;
66145;SDS011;52948;60.040;30.320;2022-07-03T18:42:23;4.70;;;1.55;;
66145;SDS011;52948;60.040;30.320;2022-07-03T18:47:26;2.80;;;1.63;;
66145;SDS011;52948;60.040;30.320;2022-07-03T18:52:40;1.85;;;1.67;;
66145;SDS011;52948;60.040;30.320;2022-07-03T18:57:49;4.50;;;1.58;;
66145;SDS011;52948;60.040;30.320;2022-07-03T19:08:06;1.52;;;1.35;;
66145;SDS011;52948;60.040;30.320;2022-07-03T19:13:12;1.70;;;1.40;;
66145;SDS011;52948;60.040;30.320;2022-07-03T19:18:14;1.60;;;1.48;;
66145;SDS011;52948;60.040;30.320;2022-07-03T19:23:17;1.70;;;1.38;;
66145;SDS011;52948;60.040;30.320;2022-07-03T19:28:19;1.63;;;1.30;;
66145;SDS011;52948;60.040;30.320;2022-07-03T19:38:28;1.50;;;1.30;;
66145;SDS011;52948;60.040;30.320;2022-07-03T19:43:31;3.08;;;1.33;;
66145;SDS011;52948;60.040;30.320;2022-07-03T19:48:33;2.65;;;1.27;;
66145;SDS011;52948;60.040;30.320;2022-07-03T19:53:36;2.30;;;1.67;;
66145;SDS011;52948;60.040;30.320;2022-07-03T19:58:38;3.50;;;1.30;;
66145;SDS011;52948;60.040;30.320;2022-07-03T20:03:41;2.17;;;1.10;;
66145;SDS011;52948;60.040;30.320;2022-07-03T20:08:43;1.45;;;1.35;;
66145;SDS011;52948;60.040;30.320;2022-07-03T20:13:45;2.08;;;1.00;;
66145;SDS011;52948;60.040;30.320;2022-07-03T20:18:48;1.30;;;1.13;;
66145;SDS011;52948;60.040;30.320;2022-07-03T20:23:50;2.97;;;1.15;;
66145;SDS011;52948;60.040;30.320;2022-07-03T20:29:11;2.70;;;1.48;;
66145;SDS011;52948;60.040;30.320;2022-07-03T20:34:14;2.20;;;1.25;;
66145;SDS011;52948;60.040;30.320;2022-07-03T20:39:16;3.15;;;1.83;;
66145;SDS011;52948;60.040;30.320;2022-07-03T20:44:19;2.63;;;1.80;;
66145;SDS011;52948;60.040;30.320;2022-07-03T20:54:52;3.20;;;1.48;;
66145;SDS011;52948;60.040;30.320;2022-07-03T20:59:55;2.10;;;1.52;;
66145;SDS011;52948;60.040;30.320;2022-07-03T21:04:57;3.28;;;1.80;;
66145;SDS011;52948;60.040;30.320;2022-07-03T21:10:01;4.30;;;1.42;;
66145;SDS011;52948;60.040;30.320;2022-07-03T21:15:03;1.45;;;1.35;;
66145;SDS011;52948;60.040;30.320;2022-07-03T21:20:06;1.50;;;1.40;;
66145;SDS011;52948;60.040;30.320;2022-07-03T21:25:09;1.50;;;1.40;;
66145;SDS011;52948;60.040;30.320;2022-07-03T21:30:11;4.47;;;1.60;;
66145;SDS011;52948;60.040;30.320;2022-07-03T21:35:14;7.63;;;2.05;;
66145;SDS011;52948;60.040;30.320;2022-07-03T21:40:16;5.53;;;1.80;;
66145;SDS011;52948;60.040;30.320;2022-07-03T21:45:20;2.78;;;1.70;;
66145;SDS011;52948;60.040;30.320;2022-07-03T21:50:23;1.70;;;1.60;;
66145;SDS011;52948;60.040;30.320;2022-07-03T21:55:26;1.60;;;1.45;;
66145;SDS011;52948;60.040;30.320;2022-07-03T22:00:28;1.63;;;1.20;;
66145;SDS011;52948;60.040;30.320;2022-07-03T22:05:31;2.42;;;1.45;;
66145;SDS011;52948;60.040;30.320;2022-07-03T22:10:33;1.33;;;1.20;;
66145;SDS011;52948;60.040;30.320;2022-07-03T22:15:36;4.18;;;1.40;;
66145;SDS011;52948;60.040;30.320;2022-07-03T22:20:39;1.70;;;1.60;;
66145;SDS011;52948;60.040;30.320;2022-07-03T22:25:41;2.80;;;1.30;;
66145;SDS011;52948;60.040;30.320;2022-07-03T22:30:43;3.33;;;1.45;;
66145;SDS011;52948;60.040;30.320;2022-07-03T22:35:46;2.10;;;1.48;;
66145;SDS011;52948;60.040;30.320;2022-07-03T22:40:48;1.73;;;1.38;;
66145;SDS011;52948;60.040;30.320;2022-07-03T22:45:50;2.63;;;1.40;;
66145;SDS011;52948;60.040;30.320;2022-07-03T22:50:52;3.78;;;1.88;;
66145;SDS011;52948;60.040;30.320;2022-07-03T22:55:55;2.72;;;1.27;;
66145;SDS011;52948;60.040;30.320;2022-07-03T23:00:57;1.90;;;1.40;;
66145;SDS011;52948;60.040;30.320;2022-07-03T23:05:59;2.72;;;1.45;;
66145;SDS011;52948;60.040;30.320;2022-07-03T23:11:02;1.55;;;1.33;;
66145;SDS011;52948;60.040;30.320;2022-07-03T23:16:04;4.22;;;1.40;;
66145;SDS011;52948;60.040;30.320;2022-07-03T23:21:07;1.75;;;1.42;;
66145;SDS011;52948;60.040;30.320;2022-07-03T23:26:10;2.90;;;1.45;;
66145;SDS011;52948;60.040;30.320;2022-07-03T23:31:12;1.50;;;1.40;;
66145;SDS011;52948;60.040;30.320;2022-07-03T23:36:14;1.50;;;1.20;;
66145;SDS011;52948;60.040;30.320;2022-07-03T23:41:17;3.28;;;1.52;;
66145;SDS011;52948;60.040;30.320;2022-07-03T23:46:19;3.65;;;1.48;;
66145;SDS011;52948;60.040;30.320;2022-07-03T23:51:21;2.97;;;1.35;;
66145;SDS011;52948;60.040;30.320;2022-07-03T23:56:23;1.33;;;1.23;;
